EGSS - Stansted Airport
Distance from station: E 5mi, 14km
Updated: 07/21/2018 9:50pm
Clear
Clear
 Wind from NW
Wind: NW 3 mph , 6 km/h
Temperature: 61°F , 16°C
Dew Point: 55°F , 13°C
Humidity: 83%
Barometer: 29.97 inHg , 1015 hPa
Clouds: Clear
Visibility: 6 miles , 10 km
2018/07/22 04:50 EGSS 220450Z AUTO 32003KT 9999 NCD 16/13 Q1015